createdAt,value
2023-03-29T00:00:07.042Z,40.91
2023-03-29T00:01:07.050Z,40.94
2023-03-29T00:02:07.127Z,40.70
2023-03-29T00:03:07.370Z,40.77
2023-03-29T00:04:07.275Z,40.77
2023-03-29T00:05:07.268Z,40.86
2023-03-29T00:06:07.244Z,40.79
2023-03-29T00:07:07.292Z,40.71
2023-03-29T00:08:07.375Z,40.98
2023-03-29T00:09:07.309Z,41.24
2023-03-29T00:10:07.311Z,41.22
2023-03-29T00:11:07.383Z,41.25
2023-03-29T00:12:07.416Z,41.69
2023-03-29T00:13:07.438Z,42.08
2023-03-29T00:14:07.466Z,41.94
2023-03-29T00:15:07.424Z,42.09
2023-03-29T00:16:07.449Z,42.05
2023-03-29T00:17:07.482Z,41.90
2023-03-29T00:18:07.501Z,42.16
2023-03-29T00:19:07.530Z,42.90
2023-03-29T00:20:07.592Z,43.22
2023-03-29T00:21:07.604Z,43.33
2023-03-29T00:22:07.670Z,43.06
2023-03-29T00:23:07.780Z,42.89
2023-03-29T00:24:07.715Z,42.98
2023-03-29T00:25:07.745Z,42.81
2023-03-29T00:26:08.331Z,43.11
2023-03-29T00:27:07.801Z,43.39
2023-03-29T00:28:07.802Z,43.40
2023-03-29T00:29:07.807Z,43.29
2023-03-29T00:30:07.823Z,43.08
2023-03-29T00:31:07.914Z,42.86
2023-03-29T00:32:07.880Z,42.78
2023-03-29T00:33:07.905Z,42.57
2023-03-29T00:34:07.885Z,42.51
2023-03-29T00:35:07.895Z,42.25
2023-03-29T00:36:07.950Z,42.54
2023-03-29T00:37:07.918Z,43.25
2023-03-29T00:38:07.976Z,43.96
2023-03-29T00:39:08.004Z,44.11
2023-03-29T00:40:07.986Z,43.97
2023-03-29T00:41:08.007Z,43.85
2023-03-29T00:42:08.042Z,43.88
2023-03-29T00:43:08.105Z,43.67
2023-03-29T00:44:08.131Z,43.75
2023-03-29T00:45:08.162Z,43.86
2023-03-29T00:46:08.266Z,43.81
2023-03-29T00:47:08.271Z,43.88
2023-03-29T00:48:08.494Z,44.12
2023-03-29T00:49:08.370Z,43.85
2023-03-29T00:50:08.316Z,43.92
2023-03-29T00:51:09.993Z,43.60
2023-03-29T00:52:08.392Z,43.29
2023-03-29T00:53:08.398Z,43.06
2023-03-29T00:54:08.456Z,43.16
2023-03-29T00:55:08.454Z,42.94
2023-03-29T00:56:08.496Z,43.04
2023-03-29T00:57:08.584Z,43.10
2023-03-29T00:58:08.572Z,43.03
2023-03-29T00:59:08.569Z,43.43
2023-03-29T01:00:08.624Z,43.52
2023-03-29T01:01:08.676Z,43.70
2023-03-29T01:02:08.796Z,43.98
2023-03-29T01:03:08.859Z,43.80
2023-03-29T01:04:08.896Z,43.59
2023-03-29T01:05:08.821Z,43.50
2023-03-29T01:06:08.827Z,43.28
2023-03-29T01:07:08.885Z,44.15
2023-03-29T01:08:08.834Z,44.15
2023-03-29T01:09:08.907Z,43.88
2023-03-29T01:10:08.942Z,43.72
2023-03-29T01:11:09.045Z,43.84
2023-03-29T01:12:09.053Z,43.28
2023-03-29T01:13:09.145Z,43.16
2023-03-29T01:14:09.164Z,43.19
2023-03-29T01:15:09.200Z,43.81
2023-03-29T01:16:09.286Z,43.47
2023-03-29T01:17:09.338Z,43.53
2023-03-29T01:18:09.412Z,43.58
2023-03-29T01:19:09.395Z,43.51
2023-03-29T01:20:09.391Z,43.96
2023-03-29T01:21:09.409Z,44.08
2023-03-29T01:22:09.458Z,43.89
2023-03-29T01:23:09.468Z,44.04
2023-03-29T01:24:09.460Z,44.09
2023-03-29T01:25:09.472Z,44.48
2023-03-29T01:26:09.526Z,44.42
2023-03-29T01:27:09.539Z,44.72
2023-03-29T01:28:09.654Z,44.52
2023-03-29T01:29:09.649Z,45.36
2023-03-29T01:30:09.663Z,45.06
2023-03-29T01:31:09.733Z,44.97
2023-03-29T01:32:09.800Z,45.45
2023-03-29T01:33:09.790Z,45.34
2023-03-29T01:34:09.834Z,44.77
2023-03-29T01:35:09.860Z,45.00
2023-03-29T01:36:09.964Z,44.84
2023-03-29T01:37:09.966Z,44.92
2023-03-29T01:38:10.029Z,44.78
2023-03-29T01:39:10.091Z,45.03
2023-03-29T01:40:10.214Z,45.36
2023-03-29T01:41:10.190Z,45.22
2023-03-29T01:42:10.277Z,44.88
2023-03-29T01:43:10.380Z,45.09
2023-03-29T01:44:10.396Z,45.57
2023-03-29T01:45:10.459Z,45.44
2023-03-29T01:46:10.763Z,45.21
2023-03-29T01:47:10.556Z,46.00
2023-03-29T01:48:10.670Z,46.07
2023-03-29T01:49:10.743Z,46.50
2023-03-29T01:50:10.719Z,46.68
2023-03-29T01:51:10.765Z,46.87
2023-03-29T01:52:10.791Z,46.45
2023-03-29T01:53:10.920Z,46.92
2023-03-29T01:54:10.903Z,47.00
2023-03-29T01:55:10.977Z,47.19
2023-03-29T01:56:10.974Z,47.48
2023-03-29T01:57:11.056Z,47.64
2023-03-29T01:58:11.093Z,47.95
2023-03-29T01:59:11.095Z,47.15
2023-03-29T02:00:11.141Z,47.47
2023-03-29T02:01:11.232Z,47.44
2023-03-29T02:02:11.321Z,49.69
2023-03-29T02:03:11.414Z,48.84
2023-03-29T02:04:11.292Z,48.80
2023-03-29T02:05:11.286Z,48.51
2023-03-29T02:06:11.341Z,48.39
2023-03-29T02:07:11.420Z,48.29
2023-03-29T02:08:11.468Z,47.90
2023-03-29T02:09:11.474Z,47.24
2023-03-29T02:10:11.497Z,47.54
2023-03-29T02:11:11.541Z,47.79
2023-03-29T02:12:11.612Z,48.46
2023-03-29T02:13:11.704Z,49.41
2023-03-29T02:14:11.707Z,49.42
2023-03-29T02:15:11.772Z,50.88
2023-03-29T02:16:11.871Z,51.23
2023-03-29T02:17:11.827Z,50.75
2023-03-29T02:18:11.937Z,50.95
2023-03-29T02:19:11.946Z,51.74
2023-03-29T02:20:11.955Z,51.78
2023-03-29T02:21:12.007Z,52.31
2023-03-29T02:22:12.081Z,52.11
2023-03-29T02:23:12.096Z,52.64
2023-03-29T02:24:12.140Z,51.78
2023-03-29T02:25:12.147Z,52.68
2023-03-29T02:26:12.156Z,52.59
2023-03-29T02:27:12.161Z,52.67
2023-03-29T02:28:12.191Z,53.02
2023-03-29T02:29:12.115Z,52.36
2023-03-29T02:30:12.168Z,52.17
2023-03-29T02:31:12.229Z,51.85
2023-03-29T02:32:12.239Z,51.25
2023-03-29T02:33:12.260Z,51.75
2023-03-29T02:34:12.252Z,52.04
2023-03-29T02:35:12.275Z,52.18
2023-03-29T02:36:12.296Z,53.08
2023-03-29T02:37:12.316Z,53.96
2023-03-29T02:38:12.388Z,53.91
2023-03-29T02:39:12.390Z,54.49
2023-03-29T02:40:12.405Z,54.02
2023-03-29T02:41:12.445Z,54.15
2023-03-29T02:42:12.466Z,52.59
2023-03-29T02:43:12.474Z,52.66
2023-03-29T02:44:12.506Z,52.50
2023-03-29T02:45:12.533Z,52.23
2023-03-29T02:46:12.591Z,51.89
2023-03-29T02:47:12.605Z,52.96
2023-03-29T02:48:12.682Z,53.84
2023-03-29T02:49:12.757Z,53.46
2023-03-29T02:50:12.733Z,52.87
2023-03-29T02:51:12.836Z,52.58
2023-03-29T02:52:12.907Z,52.13
2023-03-29T02:53:12.917Z,51.85
2023-03-29T02:54:12.917Z,51.55
2023-03-29T02:55:12.961Z,51.64
2023-03-29T02:56:12.935Z,51.66
2023-03-29T02:57:13.042Z,51.60
2023-03-29T02:58:13.050Z,51.53
2023-03-29T02:59:13.050Z,51.50
2023-03-29T03:00:13.074Z,51.67
2023-03-29T03:01:13.117Z,51.99
2023-03-29T03:02:13.095Z,52.12
2023-03-29T03:03:13.267Z,53.44
2023-03-29T03:04:13.409Z,53.25
2023-03-29T03:05:13.141Z,53.14
2023-03-29T03:06:13.140Z,52.84
2023-03-29T03:07:13.163Z,52.66
2023-03-29T03:08:13.164Z,52.28
2023-03-29T03:09:13.191Z,51.97
2023-03-29T03:10:13.250Z,52.11
2023-03-29T03:11:13.293Z,51.98
2023-03-29T03:12:13.324Z,51.94
2023-03-29T03:13:13.393Z,51.94
2023-03-29T03:14:13.434Z,52.06
2023-03-29T03:15:13.506Z,52.48
2023-03-29T03:16:13.590Z,52.63
2023-03-29T03:17:13.537Z,52.82
2023-03-29T03:18:13.519Z,52.77
2023-03-29T03:19:13.524Z,52.83
2023-03-29T03:20:13.608Z,52.79
2023-03-29T03:21:13.616Z,52.51
2023-03-29T03:22:13.669Z,52.38
2023-03-29T03:23:13.740Z,52.21
2023-03-29T03:24:13.781Z,51.82
2023-03-29T03:25:13.853Z,52.02
2023-03-29T03:26:13.898Z,52.02
2023-03-29T03:27:13.962Z,51.79
2023-03-29T03:28:14.030Z,51.91
2023-03-29T03:29:14.035Z,51.95
2023-03-29T03:30:14.022Z,51.64
2023-03-29T03:31:14.135Z,52.03
2023-03-29T03:32:14.110Z,51.73
2023-03-29T03:33:14.136Z,52.19
2023-03-29T03:34:14.186Z,52.15
2023-03-29T03:35:14.226Z,53.99
2023-03-29T03:36:14.271Z,54.64
2023-03-29T03:37:14.282Z,55.45
2023-03-29T03:38:14.289Z,56.55
2023-03-29T03:39:14.337Z,57.41
2023-03-29T03:40:14.309Z,56.94
2023-03-29T03:41:14.313Z,58.55
2023-03-29T03:42:14.380Z,59.07
2023-03-29T03:43:14.454Z,59.17
2023-03-29T03:44:14.443Z,59.02
2023-03-29T03:45:15.422Z,60.60
2023-03-29T03:46:14.552Z,61.02
2023-03-29T03:47:14.517Z,60.47
2023-03-29T03:48:14.528Z,60.45
2023-03-29T03:49:14.528Z,60.91
2023-03-29T03:50:14.565Z,60.57
2023-03-29T03:51:14.639Z,60.53
2023-03-29T03:52:14.705Z,59.81
2023-03-29T03:53:14.746Z,59.36
2023-03-29T03:54:14.763Z,59.32
2023-03-29T03:55:14.834Z,59.29
2023-03-29T03:56:14.891Z,60.39
2023-03-29T03:57:14.938Z,60.36
2023-03-29T03:58:14.926Z,60.32
2023-03-29T03:59:14.951Z,60.02
2023-03-29T04:00:15.057Z,59.50
2023-03-29T04:01:15.123Z,59.09
2023-03-29T04:02:15.196Z,59.04
2023-03-29T04:03:15.401Z,58.24
2023-03-29T04:04:15.336Z,58.36
2023-03-29T04:05:15.362Z,57.97
2023-03-29T04:06:15.390Z,58.49
2023-03-29T04:07:15.441Z,59.30
2023-03-29T04:08:15.488Z,58.92
2023-03-29T04:09:15.510Z,58.01
2023-03-29T04:10:15.540Z,58.49
2023-03-29T04:11:15.648Z,57.77
2023-03-29T04:12:15.684Z,58.04
2023-03-29T04:13:15.706Z,57.85
2023-03-29T04:14:15.767Z,58.11
2023-03-29T04:15:15.781Z,59.19
2023-03-29T04:16:15.838Z,59.18
2023-03-29T04:17:15.844Z,58.52
2023-03-29T04:18:16.134Z,58.69
2023-03-29T04:19:15.955Z,58.17
2023-03-29T04:20:16.046Z,58.52
2023-03-29T04:21:16.085Z,57.98
2023-03-29T04:22:16.133Z,58.54
2023-03-29T04:23:16.212Z,58.02
2023-03-29T04:24:16.308Z,58.34
2023-03-29T04:25:16.297Z,58.04
2023-03-29T04:26:16.308Z,58.05
2023-03-29T04:27:16.352Z,57.16
2023-03-29T04:28:16.434Z,57.04
2023-03-29T04:29:16.510Z,56.68
2023-03-29T04:30:16.576Z,57.19
2023-03-29T04:31:16.699Z,58.09
2023-03-29T04:32:16.749Z,58.67
2023-03-29T04:33:16.815Z,58.54
2023-03-29T04:34:16.935Z,58.12
2023-03-29T04:35:16.963Z,59.15
2023-03-29T04:36:17.034Z,60.27
2023-03-29T04:37:16.956Z,59.76
2023-03-29T04:38:16.960Z,58.43
2023-03-29T04:39:16.919Z,57.75
2023-03-29T04:40:16.912Z,59.35
2023-03-29T04:41:16.910Z,59.38
2023-03-29T04:42:16.881Z,59.26
2023-03-29T04:43:16.915Z,59.48
2023-03-29T04:44:16.844Z,59.61
2023-03-29T04:45:16.903Z,59.20
2023-03-29T04:46:16.897Z,61.23
2023-03-29T04:47:16.916Z,62.02
2023-03-29T04:48:16.936Z,61.89
2023-03-29T04:49:16.989Z,62.65
2023-03-29T04:50:16.988Z,63.13
2023-03-29T04:51:17.045Z,63.60
2023-03-29T04:52:17.096Z,62.50
2023-03-29T04:53:17.147Z,62.12
2023-03-29T04:54:17.178Z,61.44
2023-03-29T04:55:17.169Z,61.74
2023-03-29T04:56:17.209Z,62.04
2023-03-29T04:57:17.255Z,61.32
2023-03-29T04:58:18.155Z,62.34
2023-03-29T04:59:17.229Z,62.60
2023-03-29T05:01:45.118Z,62.10
2023-03-29T05:02:37.566Z,62.48
2023-03-29T05:03:37.488Z,62.53
2023-03-29T05:04:37.523Z,61.38
2023-03-29T05:05:37.457Z,61.69
2023-03-29T05:06:37.432Z,60.56
2023-03-29T05:07:37.434Z,60.62
2023-03-29T05:08:37.437Z,60.85
2023-03-29T05:09:37.405Z,60.34
2023-03-29T05:10:37.442Z,59.90
2023-03-29T05:11:37.414Z,59.95
2023-03-29T05:12:37.454Z,59.31
2023-03-29T05:13:37.429Z,59.18
2023-03-29T05:14:37.377Z,60.04
2023-03-29T05:15:39.043Z,59.73
2023-03-29T05:16:37.414Z,58.98
2023-03-29T05:17:37.376Z,58.23
2023-03-29T05:18:37.425Z,59.43
2023-03-29T05:19:37.378Z,59.12
2023-03-29T05:20:37.359Z,60.17
2023-03-29T05:21:37.331Z,61.01
2023-03-29T05:22:37.333Z,61.31
2023-03-29T05:23:37.416Z,61.87
2023-03-29T05:24:37.353Z,62.26
2023-03-29T05:25:37.317Z,62.12
2023-03-29T05:26:37.350Z,62.03
2023-03-29T05:27:37.332Z,61.83
2023-03-29T05:28:37.366Z,60.31
2023-03-29T05:29:37.282Z,59.88
2023-03-29T05:30:37.305Z,59.58
2023-03-29T05:31:37.331Z,59.46
2023-03-29T05:32:37.330Z,58.93
2023-03-29T05:33:37.382Z,59.37
2023-03-29T05:34:37.297Z,60.15
2023-03-29T05:35:37.326Z,59.63
2023-03-29T05:36:37.287Z,59.43
2023-03-29T05:37:37.356Z,59.32
2023-03-29T05:38:37.725Z,58.87
2023-03-29T05:39:37.793Z,58.38
2023-03-29T05:40:37.256Z,58.96
2023-03-29T05:41:37.248Z,58.73
2023-03-29T05:42:37.229Z,58.88
2023-03-29T05:43:37.263Z,59.55
2023-03-29T05:44:37.722Z,59.21
2023-03-29T05:47:05.176Z,59.65
2023-03-29T05:47:57.377Z,60.24
2023-03-29T05:48:57.555Z,59.81
2023-03-29T05:49:57.445Z,59.59
2023-03-29T05:50:57.386Z,59.37
2023-03-29T05:51:57.350Z,59.64
2023-03-29T05:52:57.423Z,59.39
2023-03-29T05:53:57.325Z,59.53
2023-03-29T05:54:57.293Z,58.48
2023-03-29T05:55:57.304Z,58.23
2023-03-29T05:56:57.398Z,57.36
2023-03-29T05:57:57.367Z,57.22
2023-03-29T05:58:57.367Z,57.78
2023-03-29T05:59:57.499Z,57.73
2023-03-29T06:00:57.478Z,58.52
2023-03-29T06:01:57.496Z,57.78
2023-03-29T06:03:06.466Z,57.50
2023-03-29T06:03:59.328Z,56.76
2023-03-29T06:04:57.656Z,58.35
2023-03-29T06:05:57.523Z,58.22
2023-03-29T06:06:57.617Z,58.31
2023-03-29T06:07:57.519Z,57.76
2023-03-29T06:08:57.487Z,56.67
2023-03-29T06:09:57.548Z,56.41
2023-03-29T06:10:57.481Z,56.27
2023-03-29T06:11:57.510Z,55.87
2023-03-29T06:12:57.607Z,56.08
2023-03-29T06:13:57.568Z,57.26
2023-03-29T06:14:58.040Z,57.65
2023-03-29T06:15:57.673Z,57.96
2023-03-29T06:16:57.775Z,56.87
2023-03-29T06:17:57.801Z,56.80
2023-03-29T06:18:57.820Z,58.57
2023-03-29T06:19:57.980Z,57.89
2023-03-29T06:20:58.014Z,57.97
2023-03-29T06:21:57.943Z,58.53
2023-03-29T06:22:57.947Z,58.19
2023-03-29T06:23:58.044Z,58.22
2023-03-29T06:24:57.958Z,58.28
2023-03-29T06:25:58.007Z,58.21
2023-03-29T06:26:57.970Z,57.97
2023-03-29T06:27:58.016Z,57.25
2023-03-29T06:28:57.988Z,58.17
2023-03-29T06:29:58.043Z,58.17
2023-03-29T06:30:58.148Z,57.99
2023-03-29T06:31:58.090Z,58.16
2023-03-29T06:32:58.175Z,57.21
2023-03-29T06:33:58.030Z,57.38
2023-03-29T06:34:58.593Z,57.64
2023-03-29T06:35:58.162Z,57.28
2023-03-29T06:36:58.585Z,57.91
2023-03-29T06:37:58.140Z,58.79
2023-03-29T06:38:58.251Z,59.42
2023-03-29T06:39:58.567Z,59.55
2023-03-29T06:40:58.464Z,59.44
2023-03-29T06:41:59.029Z,59.58
2023-03-29T06:42:58.232Z,60.10
2023-03-29T06:43:58.242Z,60.77
2023-03-29T06:45:00.255Z,60.46
2023-03-29T06:46:01.249Z,60.28
2023-03-29T06:47:05.870Z,60.58
2023-03-29T06:47:58.771Z,60.91
2023-03-29T06:48:58.777Z,61.92
2023-03-29T06:49:58.713Z,61.54
2023-03-29T06:50:58.583Z,61.21
2023-03-29T06:51:59.423Z,61.76
2023-03-29T06:53:02.463Z,61.62
2023-03-29T06:53:58.300Z,61.96
2023-03-29T06:54:58.261Z,61.54
2023-03-29T06:55:58.281Z,60.81
2023-03-29T06:56:58.287Z,60.95
2023-03-29T06:57:59.114Z,60.94
2023-03-29T06:58:59.561Z,60.64
2023-03-29T07:01:26.128Z,59.40
2023-03-29T07:02:17.978Z,58.71
2023-03-29T07:03:18.003Z,58.44
2023-03-29T07:04:18.255Z,58.51
2023-03-29T07:05:18.029Z,58.35
2023-03-29T07:06:18.613Z,57.74
2023-03-29T07:07:18.056Z,57.87
2023-03-29T07:08:18.022Z,57.86
2023-03-29T07:09:19.565Z,57.29
2023-03-29T07:10:18.169Z,56.78
2023-03-29T07:11:18.091Z,56.12
2023-03-29T07:12:18.158Z,56.00
2023-03-29T07:13:18.160Z,55.74
2023-03-29T07:14:18.198Z,56.90
2023-03-29T07:15:18.258Z,57.06
2023-03-29T07:16:18.319Z,56.48
2023-03-29T07:17:18.320Z,55.59
2023-03-29T07:18:18.456Z,55.31
2023-03-29T07:19:18.500Z,54.97
2023-03-29T07:20:18.562Z,55.24
2023-03-29T07:21:18.505Z,55.95
2023-03-29T07:22:18.580Z,55.72
2023-03-29T07:23:18.608Z,56.62
2023-03-29T07:24:18.648Z,55.96
2023-03-29T07:25:18.699Z,56.17
2023-03-29T07:26:30.006Z,55.90
2023-03-29T07:27:18.781Z,55.83
2023-03-29T07:28:18.696Z,55.44
2023-03-29T07:29:18.697Z,55.74
2023-03-29T07:30:19.155Z,56.51
2023-03-29T07:31:18.737Z,56.89
2023-03-29T07:32:18.759Z,57.37
2023-03-29T07:33:18.851Z,57.84
2023-03-29T07:34:18.706Z,58.44
2023-03-29T07:35:19.124Z,58.43
2023-03-29T07:36:18.740Z,59.41
2023-03-29T07:37:18.723Z,59.68
2023-03-29T07:38:18.751Z,59.53
2023-03-29T07:39:18.835Z,59.44
2023-03-29T07:40:19.050Z,59.32
2023-03-29T07:41:18.868Z,57.76
2023-03-29T07:42:18.876Z,58.09
2023-03-29T07:43:19.003Z,58.21
2023-03-29T07:44:18.987Z,56.82
2023-03-29T07:45:19.606Z,56.48
2023-03-29T07:46:20.180Z,55.45
2023-03-29T07:47:19.183Z,55.51
2023-03-29T07:48:19.225Z,56.48
2023-03-29T07:49:21.004Z,56.42
2023-03-29T07:50:19.639Z,57.08
2023-03-29T07:51:19.196Z,55.87
2023-03-29T07:52:19.133Z,57.49
2023-03-29T07:53:19.183Z,57.24
2023-03-29T07:54:26.740Z,58.39
2023-03-29T07:55:19.134Z,59.38
2023-03-29T07:56:19.158Z,60.20
2023-03-29T07:57:19.175Z,60.14
2023-03-29T07:58:19.194Z,59.88
2023-03-29T07:59:19.124Z,59.44
2023-03-29T08:00:19.157Z,59.74
2023-03-29T08:01:19.902Z,59.97
2023-03-29T08:02:19.114Z,59.54
2023-03-29T08:03:19.185Z,60.09
2023-03-29T08:04:19.188Z,61.00
2023-03-29T08:05:29.251Z,59.54
2023-03-29T08:06:20.045Z,59.78
2023-03-29T08:07:20.101Z,58.99
2023-03-29T08:08:19.091Z,59.27
2023-03-29T08:09:19.092Z,58.19
2023-03-29T08:10:19.056Z,57.82
2023-03-29T08:11:19.070Z,57.54
2023-03-29T08:12:19.007Z,58.24
2023-03-29T08:13:18.980Z,57.94
2023-03-29T08:14:19.023Z,58.15
2023-03-29T08:15:19.614Z,58.86
2023-03-29T08:16:19.021Z,58.63
2023-03-29T08:17:19.062Z,57.94
2023-03-29T08:18:19.029Z,57.72
2023-03-29T08:19:19.208Z,58.31
2023-03-29T08:20:19.172Z,58.26
2023-03-29T08:21:19.648Z,58.38
2023-03-29T08:22:19.093Z,58.57
2023-03-29T08:23:19.143Z,59.15
2023-03-29T08:24:20.900Z,57.24
2023-03-29T08:25:19.565Z,57.30
2023-03-29T08:26:19.364Z,56.49
2023-03-29T08:27:19.313Z,55.28
2023-03-29T08:28:19.286Z,55.26
2023-03-29T08:29:19.343Z,54.63
2023-03-29T08:30:19.377Z,54.91
2023-03-29T08:31:19.398Z,55.99
2023-03-29T08:32:19.423Z,55.06
2023-03-29T08:33:19.396Z,54.84
2023-03-29T08:34:19.423Z,55.12
2023-03-29T08:35:19.602Z,55.79
2023-03-29T08:36:19.454Z,55.24
2023-03-29T08:37:19.446Z,56.22
2023-03-29T08:38:19.395Z,57.20
2023-03-29T08:39:19.699Z,57.59
2023-03-29T08:40:19.672Z,57.88
2023-03-29T08:41:19.462Z,57.35
2023-03-29T08:42:19.456Z,56.54
2023-03-29T08:43:19.674Z,56.90
2023-03-29T08:44:19.502Z,57.90
2023-03-29T08:45:19.525Z,58.02
2023-03-29T08:46:19.532Z,58.45
2023-03-29T08:47:19.562Z,58.91
2023-03-29T08:48:19.486Z,59.58
2023-03-29T08:49:19.495Z,59.00
2023-03-29T08:50:19.562Z,58.71
2023-03-29T08:51:19.488Z,59.46
2023-03-29T08:52:19.485Z,60.62
2023-03-29T08:53:19.495Z,60.06
2023-03-29T08:54:19.521Z,60.15
2023-03-29T08:55:19.561Z,60.73
2023-03-29T08:56:19.427Z,61.44
2023-03-29T08:57:19.541Z,61.68
2023-03-29T08:58:19.568Z,61.25
2023-03-29T08:59:19.501Z,61.97
2023-03-29T09:00:19.633Z,62.51
2023-03-29T09:01:19.629Z,62.32
2023-03-29T09:02:19.712Z,61.99
2023-03-29T09:03:19.754Z,61.27
2023-03-29T09:04:19.732Z,60.92
2023-03-29T09:05:20.162Z,61.32
2023-03-29T09:06:19.834Z,62.04
2023-03-29T09:07:19.909Z,61.62
2023-03-29T09:08:19.870Z,61.29
2023-03-29T09:09:19.960Z,61.47
2023-03-29T09:10:19.949Z,60.07
2023-03-29T09:11:19.976Z,61.32
2023-03-29T09:12:20.041Z,60.65
2023-03-29T09:13:20.142Z,60.86
2023-03-29T09:14:20.095Z,60.43
2023-03-29T09:15:20.090Z,60.24
2023-03-29T09:16:20.197Z,60.44
2023-03-29T09:17:20.112Z,59.91
2023-03-29T09:18:20.181Z,60.27
2023-03-29T09:19:20.137Z,60.75
2023-03-29T09:20:20.616Z,60.82
2023-03-29T09:21:20.226Z,60.78
2023-03-29T09:22:20.244Z,61.21
2023-03-29T09:23:20.290Z,61.88
2023-03-29T09:24:20.330Z,60.09
2023-03-29T09:25:20.609Z,59.44
2023-03-29T09:26:20.397Z,59.21
2023-03-29T09:27:20.374Z,59.40
2023-03-29T09:28:20.388Z,60.47
2023-03-29T09:29:20.390Z,60.25
2023-03-29T09:30:20.554Z,59.80
2023-03-29T09:31:20.481Z,59.31
2023-03-29T09:32:20.417Z,58.38
2023-03-29T09:33:20.427Z,58.92
2023-03-29T09:34:20.433Z,58.30
2023-03-29T09:35:20.600Z,57.99
2023-03-29T09:36:20.580Z,56.95
2023-03-29T09:37:20.616Z,57.57
2023-03-29T09:38:20.680Z,58.98
2023-03-29T09:39:20.973Z,58.52
2023-03-29T09:40:21.777Z,57.75
2023-03-29T09:41:20.853Z,57.47
2023-03-29T09:42:20.988Z,55.71
2023-03-29T09:43:20.641Z,54.64
2023-03-29T09:44:30.329Z,55.01
2023-03-29T09:45:22.036Z,55.85
2023-03-29T09:46:20.701Z,55.97
2023-03-29T09:47:20.653Z,56.20
2023-03-29T09:48:20.648Z,55.04
2023-03-29T09:49:20.700Z,53.94
2023-03-29T09:50:30.730Z,53.54
2023-03-29T09:51:21.648Z,53.04
2023-03-29T09:52:20.658Z,52.55
2023-03-29T09:53:20.693Z,51.32
2023-03-29T09:54:20.776Z,51.26
2023-03-29T09:55:20.930Z,51.01
2023-03-29T09:56:20.854Z,50.44
2023-03-29T09:57:20.958Z,51.17
2023-03-29T09:58:20.928Z,51.16
2023-03-29T09:59:20.986Z,50.99
2023-03-29T10:00:21.023Z,52.10
2023-03-29T10:01:21.731Z,51.55
2023-03-29T10:02:22.727Z,52.37
2023-03-29T10:03:21.173Z,52.35
2023-03-29T10:04:21.620Z,52.10
2023-03-29T10:05:20.972Z,52.30
2023-03-29T10:06:21.051Z,52.89
2023-03-29T10:07:20.925Z,53.06
2023-03-29T10:08:21.024Z,52.35
2023-03-29T10:09:21.985Z,53.33
2023-03-29T10:10:20.996Z,52.94
2023-03-29T10:11:20.953Z,54.17
2023-03-29T10:12:20.988Z,53.37
2023-03-29T10:13:20.907Z,52.82
2023-03-29T10:14:20.918Z,52.28
2023-03-29T10:15:29.166Z,51.62
2023-03-29T10:16:22.029Z,50.37
2023-03-29T10:17:20.979Z,49.81
2023-03-29T10:18:20.958Z,50.44
2023-03-29T10:19:20.845Z,49.35
2023-03-29T10:20:20.949Z,49.46
2023-03-29T10:21:21.014Z,49.77
2023-03-29T10:22:20.843Z,50.23
2023-03-29T10:23:20.818Z,50.31
2023-03-29T10:24:20.808Z,49.63
2023-03-29T10:25:20.850Z,49.12
2023-03-29T10:26:21.169Z,50.65
2023-03-29T10:27:20.917Z,51.13
2023-03-29T10:28:20.876Z,50.35
2023-03-29T10:29:21.021Z,49.29
2023-03-29T10:30:20.927Z,50.33
2023-03-29T10:31:21.144Z,50.36
2023-03-29T10:32:20.984Z,51.93
2023-03-29T10:33:20.970Z,51.10
2023-03-29T10:34:21.094Z,52.00
2023-03-29T10:35:21.058Z,51.66
2023-03-29T10:36:21.097Z,51.34
2023-03-29T10:37:21.207Z,51.27
2023-03-29T10:38:21.371Z,51.14
2023-03-29T10:39:21.354Z,50.79
2023-03-29T10:40:21.370Z,49.42
2023-03-29T10:41:21.201Z,49.01
2023-03-29T10:42:21.258Z,47.90
2023-03-29T10:43:21.285Z,47.91
2023-03-29T10:44:21.292Z,47.42
2023-03-29T10:45:21.258Z,46.98
2023-03-29T10:46:21.397Z,48.61
2023-03-29T10:47:22.096Z,48.87
2023-03-29T10:48:21.317Z,48.27
2023-03-29T10:49:21.314Z,49.44
2023-03-29T10:50:21.665Z,49.47
2023-03-29T10:51:21.444Z,49.96
2023-03-29T10:52:21.499Z,50.69
2023-03-29T10:53:21.472Z,49.20
2023-03-29T10:54:21.503Z,50.80
2023-03-29T10:55:21.536Z,50.01
2023-03-29T10:56:21.592Z,49.73
2023-03-29T10:57:22.802Z,49.89
2023-03-29T10:58:21.592Z,50.54
2023-03-29T10:59:21.613Z,48.49
2023-03-29T11:00:21.633Z,48.62
2023-03-29T11:01:21.801Z,47.90
2023-03-29T11:02:22.442Z,47.89
2023-03-29T11:03:21.955Z,47.61
2023-03-29T11:04:21.733Z,48.30
2023-03-29T11:05:21.746Z,47.24
2023-03-29T11:06:21.780Z,47.78
2023-03-29T11:07:21.751Z,47.44
2023-03-29T11:08:21.818Z,47.49
2023-03-29T11:09:21.798Z,47.91
2023-03-29T11:10:21.704Z,47.10
2023-03-29T11:11:21.865Z,47.18
2023-03-29T11:12:21.885Z,49.66
2023-03-29T11:13:21.889Z,47.49
2023-03-29T11:14:21.832Z,47.64
2023-03-29T11:15:21.995Z,47.66
2023-03-29T11:16:33.634Z,47.82
2023-03-29T11:17:22.087Z,47.17
2023-03-29T11:18:21.999Z,47.99
2023-03-29T11:19:21.938Z,47.10
2023-03-29T11:20:21.966Z,46.13
2023-03-29T11:21:22.111Z,46.74
2023-03-29T11:22:22.652Z,46.79
2023-03-29T11:23:21.905Z,47.13
2023-03-29T11:24:23.142Z,45.97
2023-03-29T11:25:22.074Z,46.86
2023-03-29T11:26:22.219Z,48.22
2023-03-29T11:27:22.019Z,47.43
2023-03-29T11:28:21.984Z,47.94
2023-03-29T11:29:22.691Z,47.76
2023-03-29T11:30:23.290Z,47.24
2023-03-29T11:31:22.277Z,47.36
2023-03-29T11:32:22.175Z,47.67
2023-03-29T11:33:21.979Z,45.15
2023-03-29T11:34:22.004Z,46.53
2023-03-29T11:35:21.968Z,45.79
2023-03-29T11:36:22.122Z,46.19
2023-03-29T11:37:21.911Z,46.68
2023-03-29T11:38:21.919Z,45.86
2023-03-29T11:39:21.968Z,45.05
2023-03-29T11:40:22.715Z,44.65
2023-03-29T11:41:22.071Z,44.92
2023-03-29T11:42:21.937Z,44.35
2023-03-29T11:43:21.841Z,44.49
2023-03-29T11:44:21.839Z,44.53
2023-03-29T11:45:21.769Z,43.72
2023-03-29T11:46:22.167Z,43.52
2023-03-29T11:47:21.870Z,43.91
2023-03-29T11:48:21.852Z,46.71
2023-03-29T11:49:21.809Z,45.53
2023-03-29T11:50:21.794Z,46.07
2023-03-29T11:51:21.823Z,45.32
2023-03-29T11:52:21.793Z,44.21
2023-03-29T11:53:21.798Z,44.16
2023-03-29T11:54:22.568Z,44.28
2023-03-29T11:55:21.916Z,44.49
2023-03-29T11:56:21.910Z,45.49
2023-03-29T11:57:21.995Z,43.22
2023-03-29T11:58:21.921Z,42.85
2023-03-29T11:59:21.893Z,43.05
2023-03-29T12:00:21.967Z,42.86
2023-03-29T12:01:21.958Z,42.07
2023-03-29T12:02:22.058Z,41.74
2023-03-29T12:03:22.198Z,41.09
2023-03-29T12:04:22.030Z,41.44
2023-03-29T12:05:29.660Z,41.97
2023-03-29T12:06:22.000Z,42.16
2023-03-29T12:07:22.009Z,41.96
2023-03-29T12:08:21.980Z,41.92
2023-03-29T12:09:21.977Z,41.87
2023-03-29T12:10:21.975Z,41.90
2023-03-29T12:11:21.988Z,41.95
2023-03-29T12:12:21.979Z,42.33
2023-03-29T12:13:22.016Z,43.01
2023-03-29T12:14:21.898Z,43.26
2023-03-29T12:15:21.948Z,43.01
2023-03-29T12:16:22.064Z,42.81
2023-03-29T12:17:22.013Z,43.29
2023-03-29T12:18:21.951Z,42.36
2023-03-29T12:19:21.941Z,42.74
2023-03-29T12:20:21.921Z,43.22
2023-03-29T12:21:21.971Z,43.79
2023-03-29T12:22:22.008Z,44.59
2023-03-29T12:23:21.924Z,44.01
2023-03-29T12:24:22.119Z,44.94
2023-03-29T12:25:23.265Z,45.55
2023-03-29T12:26:22.008Z,45.32
2023-03-29T12:27:22.046Z,44.20
2023-03-29T12:28:22.047Z,44.56
2023-03-29T12:29:22.089Z,43.71
2023-03-29T12:30:22.066Z,43.16
2023-03-29T12:31:22.253Z,43.32
2023-03-29T12:32:22.212Z,42.93
2023-03-29T12:33:22.141Z,42.46
2023-03-29T12:34:22.201Z,42.28
2023-03-29T12:35:22.153Z,43.06
2023-03-29T12:36:22.168Z,43.81
2023-03-29T12:37:22.196Z,43.90
2023-03-29T12:38:22.164Z,43.43
2023-03-29T12:39:22.209Z,44.31
2023-03-29T12:40:22.240Z,45.08
2023-03-29T12:41:22.343Z,45.05
2023-03-29T12:42:22.353Z,45.47
2023-03-29T12:43:22.350Z,44.69
2023-03-29T12:44:22.427Z,44.63
2023-03-29T12:45:22.378Z,44.13
2023-03-29T12:46:22.592Z,44.13
2023-03-29T12:47:22.491Z,43.28
2023-03-29T12:48:22.562Z,42.57
2023-03-29T12:49:22.552Z,43.04
2023-03-29T12:50:22.568Z,43.33
2023-03-29T12:51:22.782Z,43.45
2023-03-29T12:52:22.621Z,43.50
2023-03-29T12:53:22.640Z,44.11
2023-03-29T12:54:22.700Z,44.48
2023-03-29T12:55:22.721Z,43.84
2023-03-29T12:56:23.174Z,43.53